Home   Weather   Ireland   Dublin   Past weeks
Flag for Ireland

Past Weather in Dublin, Ireland — June 2018

Currently: 34 °F. Passing clouds. (Weather station: Dublin Airport, Ireland). See more current weather

June 2018 Weather in Dublin — Graph

°F

High & Low Weather Summary for June 2018

 TemperatureHumidityPressure
High79 °F (Jun 27, 1:30 pm)100% (Jun 1, 12:30 am)30.54 "Hg (Jun 1, 12:30 am)
Low39 °F (Jun 22, 2:00 am)27% (Jun 29, 11:30 am)29.42 "Hg (Jun 14, 3:30 am)
Average59 °F73%30.10 "Hg
* Reported Jun 1 12:00 am — Jun 30 11:30 pm, Dublin. Weather by CustomWeather, © 2023

Note: Actual official high and low records may vary slightly from our data, if they occured in-between our weather recording intervals... More about our weather records

Dublin Weather History for June 1, 2018

Scroll right to see more
 ConditionsComfort  
Time TempWeatherWind HumidityBarometerVisibility
12:00 am
Fri, Jun 1
55 °FPassing clouds.9 mph94%30.01 "Hg4 mi
12:30 am55 °FPassing clouds.9 mph100%30.01 "Hg4 mi
1:00 am55 °FPassing clouds.8 mph100%30.01 "Hg4 mi
1:30 am54 °FPassing clouds.6 mph94%30.01 "Hg4 mi
2:00 am50 °FPassing clouds.2 mph100%30.01 "Hg4 mi
2:30 am52 °FPassing clouds.1 mph100%30.01 "Hg4 mi
3:00 am52 °FPassing clouds.2 mph94%30.01 "Hg5 mi
3:30 am52 °FPassing clouds.2 mph100%30.01 "Hg6 mi
4:00 am52 °FPassing clouds.3 mph94%30.01 "Hg6 mi
4:30 am52 °FPassing clouds.1 mph100%30.01 "Hg6 mi
5:00 am52 °FPassing clouds.2 mph100%30.01 "Hg4 mi
5:30 am52 °FFog.2 mph100%30.01 "Hg3 mi
6:00 am54 °FFog.5 mph100%30.01 "Hg3 mi
6:30 am55 °FFog.5 mph100%30.01 "Hg1 mi
7:00 am55 °FBroken clouds.2 mph100%30.04 "Hg1 mi
7:30 am57 °FFog.2 mph100%30.04 "Hg2 mi
8:00 am57 °FLight rain. Broken clouds.2 mph100%30.04 "Hg4 mi
9:00 am61 °FBroken clouds.3 mph94%30.04 "Hg4 mi
9:30 am61 °FPartly sunny.2 mph100%30.04 "Hg4 mi
10:00 am63 °FBroken clouds.2 mph94%30.04 "Hg4 mi
10:30 am63 °FFog.6 mph88%30.04 "Hg3 mi
11:00 am63 °FLight rain. Broken clouds.5 mph88%30.04 "Hg3 mi
11:30 am63 °FLight rain. Broken clouds.7 mph94%30.04 "Hg3 mi
12:00 pm64 °FLight rain. Broken clouds.3 mph88%30.04 "Hg4 mi
12:30 pm68 °FBroken clouds.3 mph73%30.04 "Hg6 mi
1:00 pm68 °FBroken clouds.6 mph78%30.04 "Hg6 mi
1:30 pm68 °FBroken clouds.7 mph78%30.04 "Hg6 mi
2:00 pm66 °FBroken clouds.7 mph83%30.04 "HgN/A
2:30 pm66 °FScattered clouds.8 mph78%30.04 "Hg6 mi
3:30 pm63 °FPartly sunny.9 mph88%30.04 "Hg5 mi
4:00 pm63 °FScattered clouds.9 mph88%30.04 "HgN/A
4:30 pm64 °FScattered showers. Scattered clouds.9 mph83%30.04 "HgN/A
5:00 pm63 °FFog.13 mph88%30.04 "Hg2 mi
5:30 pm61 °FBroken clouds.9 mph94%30.04 "Hg4 mi
6:00 pm61 °FScattered clouds.8 mph94%30.04 "Hg4 mi
6:30 pm61 °FScattered clouds.5 mph94%30.04 "HgN/A
7:00 pm63 °FScattered showers. Scattered clouds.5 mph88%30.04 "HgN/A
7:30 pm63 °FScattered showers. Partly sunny.3 mph88%30.04 "HgN/A
8:00 pm63 °FScattered clouds.1 mph88%30.04 "HgN/A
8:30 pm63 °FScattered clouds.3 mph88%30.04 "HgN/A
9:00 pm61 °FScattered clouds.3 mph88%30.04 "HgN/A
9:30 pm59 °FScattered clouds.5 mph94%30.04 "HgN/A
10:00 pm59 °FPassing clouds.3 mph94%30.04 "HgN/A
10:30 pm57 °FPartly cloudy.2 mph94%30.04 "HgN/A
11:00 pm55 °FPartly cloudy.2 mph94%30.04 "HgN/A
11:30 pm55 °FPartly cloudy.2 mph94%30.04 "HgN/A
Weather by CustomWeather, © 2023

See weather overview